createdAt,value
2023-04-03T00:02:34.237Z,99074.06
2023-04-03T00:05:51.900Z,99068.37
2023-04-03T00:09:10.151Z,99073.23
2023-04-03T00:12:27.155Z,99077.08
2023-04-03T00:15:44.564Z,99070.66
2023-04-03T00:19:03.224Z,99072.24
2023-04-03T00:22:19.585Z,99074.98
2023-04-03T00:25:37.504Z,99073.55
2023-04-03T00:28:54.128Z,99074.30
2023-04-03T00:32:10.527Z,99074.44
2023-04-03T00:35:28.738Z,99078.82
2023-04-03T00:38:45.283Z,99076.20
2023-04-03T00:42:02.223Z,99092.17
2023-04-03T00:45:39.557Z,99088.22
2023-04-03T00:48:57.584Z,99089.16
2023-04-03T00:52:15.749Z,99096.45
2023-04-03T00:55:33.574Z,99094.89
2023-04-03T00:58:54.836Z,99097.50
2023-04-03T01:02:11.601Z,99093.34
2023-04-03T01:05:29.602Z,99092.67
2023-04-03T01:08:48.758Z,99107.66
2023-04-03T01:12:20.231Z,99099.55
2023-04-03T01:15:37.902Z,99104.20
2023-04-03T01:18:55.384Z,99109.44
2023-04-03T01:22:24.385Z,99107.67
2023-04-03T01:25:42.655Z,99114.92
2023-04-03T01:29:00.025Z,99119.21
2023-04-03T01:32:16.760Z,99110.77
2023-04-03T01:35:34.857Z,99115.87
2023-04-03T01:38:51.912Z,99119.09
2023-04-03T01:42:09.486Z,99119.56
2023-04-03T01:45:28.003Z,99119.08
2023-04-03T01:48:44.892Z,99125.86
2023-04-03T01:52:01.367Z,99125.98
2023-04-03T01:55:18.977Z,99131.31
2023-04-03T01:58:35.332Z,99131.22
2023-04-03T02:01:51.883Z,99130.14
2023-04-03T02:05:08.210Z,99130.71
2023-04-03T02:08:27.270Z,99128.95
2023-04-03T02:11:43.792Z,99137.86
2023-04-03T02:15:00.891Z,99130.14
2023-04-03T02:18:17.964Z,99129.42
2023-04-03T02:21:34.747Z,99136.92
2023-04-03T02:24:51.028Z,99146.79
2023-04-03T02:28:07.744Z,99137.75
2023-04-03T02:31:27.266Z,99137.41
2023-04-03T02:34:44.129Z,99140.74
2023-04-03T02:38:01.801Z,99138.22
2023-04-03T02:41:20.464Z,99138.22
2023-04-03T02:44:37.916Z,99142.16
2023-04-03T02:47:54.399Z,99146.66
2023-04-03T02:51:17.923Z,99155.58
2023-04-03T02:54:34.660Z,99157.59
2023-04-03T02:57:52.711Z,99162.95
2023-04-03T03:01:10.331Z,99156.30
2023-04-03T03:04:27.865Z,99156.53
2023-04-03T03:07:45.813Z,99162.10
2023-04-03T03:11:02.279Z,99155.09
2023-04-03T03:14:19.330Z,99164.00
2023-04-03T03:17:35.651Z,99160.66
2023-04-03T03:20:52.776Z,99166.83
2023-04-03T03:24:09.645Z,99160.45
2023-04-03T03:27:26.654Z,99165.07
2023-04-03T03:30:43.089Z,99163.86
2023-04-03T03:33:59.479Z,99172.03
2023-04-03T03:37:15.917Z,99170.85
2023-04-03T03:40:32.454Z,99169.11
2023-04-03T03:43:48.827Z,99172.06
2023-04-03T03:47:05.756Z,99180.52
2023-04-03T03:50:22.734Z,99181.58
2023-04-03T03:53:39.642Z,99180.85
2023-04-03T03:56:58.322Z,99179.91
2023-04-03T04:00:18.629Z,99192.19
2023-04-03T04:03:36.839Z,99193.72
2023-04-03T04:06:53.748Z,99195.48
2023-04-03T04:10:11.120Z,99193.23
2023-04-03T04:13:27.634Z,99201.90
2023-04-03T04:16:44.277Z,99202.35
2023-04-03T04:20:02.593Z,99205.82
2023-04-03T04:23:19.257Z,99201.41
2023-04-03T04:26:35.708Z,99203.05
2023-04-03T04:29:52.409Z,99203.98
2023-04-03T04:33:10.393Z,99209.22
2023-04-03T04:36:28.006Z,99211.02
2023-04-03T04:39:44.716Z,99214.16
2023-04-03T04:43:01.310Z,99219.06
2023-04-03T04:46:20.632Z,99220.08
2023-04-03T04:49:38.775Z,99220.73
2023-04-03T04:52:55.284Z,99224.36
2023-04-03T04:56:13.036Z,99224.69
2023-04-03T04:59:29.784Z,99222.58
2023-04-03T05:02:47.655Z,99227.47
2023-04-03T05:06:04.346Z,99234.20
2023-04-03T05:09:22.123Z,99240.14
2023-04-03T05:12:38.964Z,99245.53
2023-04-03T05:15:55.592Z,99246.48
2023-04-03T05:19:13.014Z,99247.00
2023-04-03T05:22:29.445Z,99255.99
2023-04-03T05:25:48.949Z,99252.77
2023-04-03T05:29:05.928Z,99256.55
2023-04-03T05:32:23.185Z,99256.23
2023-04-03T05:35:43.330Z,99258.96
2023-04-03T05:39:02.717Z,99260.11
2023-04-03T05:42:20.147Z,99262.84
2023-04-03T05:45:36.807Z,99260.84
2023-04-03T05:48:53.760Z,99267.33
2023-04-03T05:52:12.024Z,99268.69
2023-04-03T05:55:28.757Z,99275.17
2023-04-03T05:58:45.410Z,99278.02
2023-04-03T06:02:03.054Z,99283.98
2023-04-03T06:05:20.762Z,99290.15
2023-04-03T06:08:37.303Z,99285.98
2023-04-03T06:11:54.100Z,99281.07
2023-04-03T06:15:13.805Z,99282.75
2023-04-03T06:18:30.433Z,99298.86
2023-04-03T06:21:49.450Z,99291.64
2023-04-03T06:25:05.972Z,99301.47
2023-04-03T06:28:22.900Z,99299.18
2023-04-03T06:31:39.878Z,99312.13
2023-04-03T06:35:00.402Z,99306.91
2023-04-03T06:38:17.195Z,99305.92
2023-04-03T06:41:34.811Z,99318.47
2023-04-03T06:44:52.505Z,99317.30
2023-04-03T06:48:09.080Z,99323.02
2023-04-03T06:51:35.364Z,99320.20
2023-04-03T06:54:53.734Z,99323.02
2023-04-03T06:58:11.467Z,99326.14
2023-04-03T07:01:29.526Z,99328.93
2023-04-03T07:04:46.301Z,99326.44
2023-04-03T07:08:04.878Z,99332.60
2023-04-03T07:11:23.547Z,99334.04
2023-04-03T07:14:40.229Z,99336.89
2023-04-03T07:17:59.717Z,99339.83
2023-04-03T07:21:16.922Z,99344.30
2023-04-03T07:24:33.868Z,99345.97
2023-04-03T07:27:51.155Z,99354.02
2023-04-03T07:31:15.274Z,99361.11
2023-04-03T07:34:34.911Z,99362.39
2023-04-03T07:37:55.280Z,99369.47
2023-04-03T07:41:15.390Z,99364.94
2023-04-03T07:44:32.852Z,99378.45
2023-04-03T07:47:49.997Z,99382.41
2023-04-03T07:51:10.627Z,99382.80
2023-04-03T07:54:32.299Z,99388.34
2023-04-03T07:57:49.390Z,99382.26
2023-04-03T08:01:09.407Z,99390.20
2023-04-03T08:04:27.406Z,99387.11
2023-04-03T08:07:45.754Z,99393.64
2023-04-03T08:11:06.834Z,99396.83
2023-04-03T08:14:26.431Z,99396.36
2023-04-03T08:17:43.180Z,99394.32
2023-04-03T08:21:02.362Z,99400.11
2023-04-03T08:24:19.296Z,99400.19
2023-04-03T08:27:39.027Z,99392.31
2023-04-03T08:30:56.159Z,99414.61
2023-04-03T08:34:13.537Z,99406.61
2023-04-03T08:37:30.129Z,99399.95
2023-04-03T08:40:49.512Z,99415.06
2023-04-03T08:44:27.102Z,99419.84
2023-04-03T08:47:51.240Z,99412.63
2023-04-03T08:51:13.962Z,99414.66
2023-04-03T08:54:39.565Z,99417.67
2023-04-03T08:58:01.121Z,99429.20
2023-04-03T09:01:26.771Z,99424.17
2023-04-03T09:04:45.237Z,99425.36
2023-04-03T09:08:07.796Z,99430.45
2023-04-03T09:11:33.150Z,99430.62
2023-04-03T09:14:56.927Z,99427.67
2023-04-03T09:18:20.124Z,99434.70
2023-04-03T09:21:44.162Z,99443.99
2023-04-03T09:25:06.189Z,99438.10
2023-04-03T09:28:23.108Z,99446.33
2023-04-03T09:31:45.054Z,99461.78
2023-04-03T09:35:19.091Z,99469.02
2023-04-03T09:38:30.170Z,99470.13
2023-04-03T09:41:47.007Z,99470.58
2023-04-03T09:45:09.991Z,99474.02
2023-04-03T09:48:30.249Z,99475.34
2023-04-03T09:51:47.608Z,99470.05
2023-04-03T09:55:09.541Z,99489.53
2023-04-03T09:58:48.987Z,99488.91
2023-04-03T10:02:09.001Z,99478.84
2023-04-03T10:05:42.897Z,99486.73
2023-04-03T10:09:08.356Z,99483.87
2023-04-03T10:12:28.647Z,99485.42
2023-04-03T10:15:51.442Z,99492.41
2023-04-03T10:19:29.265Z,99493.14
2023-04-03T10:22:53.270Z,99498.64
2023-04-03T10:26:19.409Z,99501.88
2023-04-03T10:29:52.889Z,99500.98
2023-04-03T10:33:26.590Z,99491.55
2023-04-03T10:36:52.204Z,99489.11
2023-04-03T10:40:15.973Z,99504.38
2023-04-03T10:43:40.673Z,99493.90
2023-04-03T10:47:03.033Z,99487.28
2023-04-03T10:50:41.646Z,99496.98
2023-04-03T10:54:05.973Z,99499.48
2023-04-03T10:57:22.901Z,99486.71
2023-04-03T11:00:44.661Z,99487.77
2023-04-03T11:04:06.075Z,99495.06
2023-04-03T11:13:09.678Z,99500.50
2023-04-03T11:16:33.711Z,99513.43
2023-04-03T11:19:55.069Z,99508.09
2023-04-03T11:26:30.624Z,99503.02
2023-04-03T11:29:49.634Z,99516.98
2023-04-03T11:33:35.891Z,99508.67
2023-04-03T11:36:57.572Z,99500.80
2023-04-03T11:43:35.557Z,99503.89
2023-04-03T11:47:04.869Z,99498.17
2023-04-03T11:50:41.141Z,99497.92
2023-04-03T11:58:07.751Z,99504.86
2023-04-03T12:01:51.342Z,99502.70
2023-04-03T12:05:36.599Z,99495.03
2023-04-03T12:08:59.371Z,99500.41
2023-04-03T12:12:37.143Z,99493.62
2023-04-03T12:16:03.566Z,99491.02
2023-04-03T12:19:49.445Z,99496.02
2023-04-03T12:26:45.866Z,99495.55
2023-04-03T12:30:03.809Z,99498.05
2023-04-03T12:33:39.232Z,99502.00
2023-04-03T12:37:05.380Z,99500.20
2023-04-03T12:43:53.034Z,99511.30
2023-04-03T12:47:15.339Z,99503.42
2023-04-03T12:50:37.912Z,99501.99
2023-04-03T12:53:55.614Z,99507.09
2023-04-03T12:57:25.703Z,99502.70
2023-04-03T13:00:45.349Z,99508.64
2023-04-03T13:04:06.194Z,99517.02
2023-04-03T13:07:35.422Z,99516.30
2023-04-03T13:14:10.088Z,99513.19
2023-04-03T13:17:28.017Z,99505.31
2023-04-03T13:20:46.202Z,99504.14
2023-04-03T13:27:21.014Z,99501.04
2023-04-03T13:30:38.538Z,99499.37
2023-04-03T13:34:05.204Z,99495.06
2023-04-03T13:37:34.795Z,99494.12
2023-04-03T13:41:09.201Z,99504.36
2023-04-03T13:44:41.440Z,99502.94
2023-04-03T13:48:03.477Z,99503.66
2023-04-03T13:51:31.232Z,99499.49
2023-04-03T13:58:08.402Z,99498.65
2023-04-03T14:01:29.259Z,99494.25
2023-04-03T14:05:00.381Z,99497.34
2023-04-03T14:12:24.310Z,99496.74
2023-04-03T14:15:36.568Z,99498.17
2023-04-03T14:18:55.000Z,99491.84
2023-04-03T14:22:23.486Z,99490.67
2023-04-03T14:25:41.207Z,99496.61
2023-04-03T14:29:01.321Z,99492.91
2023-04-03T14:32:20.367Z,99493.04
2023-04-03T14:35:37.055Z,99488.39
2023-04-03T14:38:55.413Z,99482.28
2023-04-03T14:42:13.079Z,99486.84
2023-04-03T14:45:30.844Z,99484.55
2023-04-03T14:48:47.257Z,99481.80
2023-04-03T14:52:04.066Z,99483.86
2023-04-03T14:55:26.073Z,99478.71
2023-04-03T14:58:42.838Z,99476.69
2023-04-03T15:01:59.973Z,99474.91
2023-04-03T15:05:20.920Z,99486.58
2023-04-03T15:13:04.903Z,99481.14
2023-04-03T15:16:27.726Z,99485.18
2023-04-03T15:19:49.727Z,99477.53
2023-04-03T15:23:07.492Z,99481.96
2023-04-03T15:26:23.773Z,99478.38
2023-04-03T15:29:40.696Z,99483.39
2023-04-03T15:32:57.405Z,99476.47
2023-04-03T15:36:29.211Z,99480.16
2023-04-03T15:39:35.646Z,99473.02
2023-04-03T15:42:53.234Z,99472.89
2023-04-03T15:46:11.010Z,99471.34
2023-04-03T15:49:28.070Z,99472.89
2023-04-03T15:52:44.668Z,99471.94
2023-04-03T15:56:09.786Z,99474.70
2023-04-03T15:59:27.571Z,99471.59
2023-04-03T16:02:44.503Z,99485.53
2023-04-03T16:06:01.802Z,99478.48
2023-04-03T16:12:34.112Z,99473.72
2023-04-03T16:15:51.490Z,99469.33
2023-04-03T16:19:08.303Z,99473.97
2023-04-03T16:22:24.939Z,99471.09
2023-04-03T16:25:41.961Z,99465.97
2023-04-03T16:28:58.727Z,99473.11
2023-04-03T16:32:15.441Z,99475.03
2023-04-03T16:35:32.868Z,99475.50
2023-04-03T16:38:49.126Z,99470.95
2023-04-03T16:43:04.096Z,99467.52
2023-04-03T16:46:21.226Z,99480.36
2023-04-03T16:49:38.579Z,99477.86
2023-04-03T16:52:56.116Z,99488.34
2023-04-03T16:59:28.340Z,99490.73
2023-04-03T17:02:45.436Z,99489.05
2023-04-03T17:06:03.072Z,99486.43
2023-04-03T17:12:35.488Z,99488.56
2023-04-03T17:15:52.650Z,99486.89
2023-04-03T17:19:09.406Z,99496.77
2023-04-03T17:22:26.194Z,99492.22
2023-04-03T17:25:43.917Z,99496.03
2023-04-03T17:29:00.896Z,99496.03
2023-04-03T17:32:18.525Z,99504.75
2023-04-03T17:35:35.636Z,99504.02
2023-04-03T17:38:52.922Z,99499.11
2023-04-03T17:42:12.919Z,99502.80
2023-04-03T17:45:29.751Z,99507.09
2023-04-03T17:48:49.600Z,99518.63
2023-04-03T17:52:06.591Z,99518.14
2023-04-03T17:58:38.306Z,99517.86
2023-04-03T18:01:56.860Z,99522.98
2023-04-03T18:05:14.971Z,99525.72
2023-04-03T18:08:32.072Z,99531.19
2023-04-03T18:11:50.256Z,99531.34
2023-04-03T18:15:08.153Z,99528.97
2023-04-03T18:18:24.997Z,99526.88
2023-04-03T18:21:42.978Z,99526.11
2023-04-03T18:28:17.681Z,99529.09
2023-04-03T18:31:37.678Z,99528.78
2023-04-03T18:34:54.309Z,99529.53
2023-04-03T18:38:10.942Z,99526.08
2023-04-03T18:44:44.405Z,99538.34
2023-04-03T18:48:02.182Z,99527.47
2023-04-03T18:51:20.360Z,99526.42
2023-04-03T18:57:52.417Z,99526.84
2023-04-03T19:01:11.537Z,99524.23
2023-04-03T19:04:28.215Z,99524.23
2023-04-03T19:07:45.614Z,99532.59
2023-04-03T19:11:02.297Z,99533.53
2023-04-03T19:14:19.425Z,99530.09
2023-04-03T19:17:36.469Z,99529.23
2023-04-03T19:20:53.404Z,99527.03
2023-04-03T19:24:10.190Z,99529.45
2023-04-03T19:27:26.607Z,99525.88
2023-04-03T19:30:47.350Z,99529.05
2023-04-03T19:34:04.696Z,99524.23
2023-04-03T19:37:21.408Z,99529.56
2023-04-03T19:40:39.150Z,99522.44
2023-04-03T19:43:57.062Z,99522.03
2023-04-03T19:47:16.460Z,99525.38
2023-04-03T19:50:33.841Z,99535.64
2023-04-03T19:53:50.340Z,99533.63
2023-04-03T19:57:08.052Z,99527.27
2023-04-03T20:00:27.833Z,99529.23
2023-04-03T20:03:43.257Z,99528.92
2023-04-03T20:06:59.460Z,99528.92
2023-04-03T20:10:17.936Z,99530.06
2023-04-03T20:13:34.674Z,99530.27
2023-04-03T20:16:51.095Z,99521.91
2023-04-03T20:20:08.647Z,99523.47
2023-04-03T20:23:25.157Z,99519.72
2023-04-03T20:29:58.736Z,99521.39
2023-04-03T20:33:15.422Z,99528.70
2023-04-03T20:36:32.756Z,99524.17
2023-04-03T20:39:49.244Z,99525.03
2023-04-03T20:43:05.546Z,99532.03
2023-04-03T20:46:25.530Z,99541.44
2023-04-03T20:49:44.383Z,99537.80
2023-04-03T20:53:00.740Z,99536.13
2023-04-03T20:59:32.665Z,99532.14
2023-04-03T21:02:51.525Z,99532.25
2023-04-03T21:06:07.049Z,99530.18
2023-04-03T21:10:15.262Z,99533.42
2023-04-03T21:14:24.311Z,99540.73
2023-04-03T21:17:36.628Z,99540.95
2023-04-03T21:20:53.305Z,99542.00
2023-04-03T21:24:12.938Z,99544.39
2023-04-03T21:27:29.353Z,99550.25
2023-04-03T21:30:46.497Z,99542.94
2023-04-03T21:34:03.109Z,99544.22
2023-04-03T21:37:20.052Z,99542.75
2023-04-03T21:40:36.947Z,99546.07
2023-04-03T21:43:55.227Z,99549.73
2023-04-03T21:47:12.489Z,99543.88
2023-04-03T21:50:28.825Z,99548.40
2023-04-03T21:53:46.647Z,99542.02
2023-04-03T21:57:02.921Z,99532.39
2023-04-03T22:00:21.324Z,99527.05
2023-04-03T22:03:37.969Z,99524.77
2023-04-03T22:06:54.425Z,99511.06
2023-04-03T22:10:11.779Z,99508.22
2023-04-03T22:13:28.247Z,99504.56
2023-04-03T22:16:47.515Z,99501.31
2023-04-03T22:20:03.813Z,99495.27
2023-04-03T22:23:20.197Z,99490.66
2023-04-03T22:26:36.422Z,99481.34
2023-04-03T22:29:52.863Z,99484.78
2023-04-03T22:33:09.620Z,99480.80
2023-04-03T22:36:26.281Z,99476.93
2023-04-03T22:39:42.680Z,99465.30
2023-04-03T22:42:58.952Z,99454.59
2023-04-03T22:46:17.182Z,99452.72
2023-04-03T22:49:33.949Z,99445.81
2023-04-03T22:52:50.601Z,99444.76
2023-04-03T22:56:09.610Z,99443.81
2023-04-03T22:59:25.900Z,99434.91
2023-04-03T23:02:46.098Z,99422.77
2023-04-03T23:06:03.632Z,99421.01
2023-04-03T23:09:19.957Z,99417.53
2023-04-03T23:12:36.573Z,99419.22
2023-04-03T23:15:54.726Z,99420.39
2023-04-03T23:19:11.207Z,99403.95
2023-04-03T23:22:27.555Z,99416.41
2023-04-03T23:29:00.143Z,99402.40
2023-04-03T23:32:17.636Z,99405.25
2023-04-03T23:35:33.985Z,99403.57
2023-04-03T23:38:50.296Z,99404.83
2023-04-03T23:45:22.833Z,99405.52
2023-04-03T23:48:39.341Z,99397.59
2023-04-03T23:51:57.398Z,99402.19
2023-04-03T23:55:14.839Z,99404.19
2023-04-03T23:58:31.285Z,99405.34
